EJU45PN EBBR-LFMN
Flight info
| Callsign | EJU45PN |
|---|---|
| Flight time | N/A |
| Altitude | 37000 |
| Route | CIV N872 LESDO DCT KOVIN DCT DUCRA UM728 KETEX DCT KOTIS DCT KUKOR DCT UTUVA DCT LERGA DCT LIQID DCT LATAM DCT TUNUR DCT NISAR |
| Aircraft | A320/M-SDE2E3FGHIRWXY/LB1 |
Departure
| Time | 2026-05-05 16:08 |
|---|---|
| Airport | Brussels Airport (EBBR) |
Arrival
| Time | N/A |
|---|---|
| Airport | Nice-Côte d'Azur Airport (LFMN) |
| Time | Latitude | Longitude | Altitude | Speed | Heading |
|---|---|---|---|---|---|
| 2026-05-05 15:39 | 50.90248 | 4.48035 | 119 ft | 0 kts | 155° |
| 2026-05-05 15:56 | 50.90249 | 4.48034 | 119 ft | 2 kts | 155° |
| 2026-05-05 15:56 | 50.90271 | 4.48017 | 116 ft | 4 kts | 152° |
| 2026-05-05 15:56 | 50.90294 | 4.47996 | 117 ft | 4 kts | 143° |
| 2026-05-05 15:56 | 50.90314 | 4.47968 | 118 ft | 4 kts | 117° |
| 2026-05-05 15:57 | 50.90317 | 4.47940 | 121 ft | 0 kts | 65° |
| 2026-05-05 16:00 | 50.90336 | 4.48005 | 120 ft | 12 kts | 63° |
| 2026-05-05 16:00 | 50.90404 | 4.48032 | 119 ft | 10 kts | 1° |
| 2026-05-05 16:00 | 50.90441 | 4.48093 | 121 ft | 7 kts | 62° |
| 2026-05-05 16:01 | 50.90472 | 4.48193 | 121 ft | 13 kts | 64° |
| 2026-05-05 16:01 | 50.90519 | 4.48359 | 121 ft | 20 kts | 66° |
| 2026-05-05 16:01 | 50.90584 | 4.48584 | 119 ft | 25 kts | 65° |
| 2026-05-05 16:01 | 50.90667 | 4.48858 | 119 ft | 30 kts | 64° |
| 2026-05-05 16:02 | 50.90728 | 4.49059 | 118 ft | 30 kts | 65° |
| 2026-05-05 16:02 | 50.90803 | 4.49339 | 123 ft | 27 kts | 68° |
| 2026-05-05 16:02 | 50.90863 | 4.49557 | 124 ft | 11 kts | 67° |
| 2026-05-05 16:02 | 50.90832 | 4.49671 | 119 ft | 13 kts | 131° |
| 2026-05-05 16:03 | 50.90744 | 4.49710 | 124 ft | 15 kts | 191° |
| 2026-05-05 16:03 | 50.90636 | 4.49667 | 121 ft | 17 kts | 194° |
| 2026-05-05 16:03 | 50.90516 | 4.49618 | 124 ft | 19 kts | 194° |
| 2026-05-05 16:03 | 50.90384 | 4.49567 | 125 ft | 20 kts | 193° |
| 2026-05-05 16:04 | 50.90243 | 4.49512 | 127 ft | 21 kts | 195° |
| 2026-05-05 16:04 | 50.90102 | 4.49451 | 129 ft | 21 kts | 195° |
| 2026-05-05 16:04 | 50.89958 | 4.49390 | 133 ft | 21 kts | 195° |
| 2026-05-05 16:04 | 50.89822 | 4.49335 | 141 ft | 19 kts | 194° |
| 2026-05-05 16:05 | 50.89705 | 4.49288 | 149 ft | 16 kts | 194° |
| 2026-05-05 16:05 | 50.89610 | 4.49232 | 154 ft | 13 kts | 217° |
| 2026-05-05 16:05 | 50.89536 | 4.49177 | 158 ft | 10 kts | 194° |
| 2026-05-05 16:05 | 50.89476 | 4.49152 | 161 ft | 10 kts | 194° |
| 2026-05-05 16:06 | 50.89394 | 4.49119 | 165 ft | 14 kts | 194° |
| 2026-05-05 16:06 | 50.89283 | 4.49073 | 169 ft | 18 kts | 195° |
| 2026-05-05 16:06 | 50.89161 | 4.49022 | 176 ft | 12 kts | 194° |
| 2026-05-05 16:06 | 50.89136 | 4.49040 | 177 ft | 3 kts | 93° |
| 2026-05-05 16:07 | 50.89141 | 4.49064 | 176 ft | 2 kts | 65° |
| 2026-05-05 16:07 | 50.89174 | 4.49196 | 176 ft | 42 kts | 69° |
| 2026-05-05 16:07 | 50.89360 | 4.50005 | 177 ft | 111 kts | 70° |
| 2026-05-05 16:07 | 50.89689 | 4.51418 | 274 ft | 153 kts | 70° |
| 2026-05-05 16:08 | 50.90067 | 4.52955 | 929 ft | 149 kts | 64° |
| 2026-05-05 16:08 | 50.90584 | 4.54426 | 1516 ft | 157 kts | 59° |
| 2026-05-05 16:08 | 50.91122 | 4.55947 | 2122 ft | 163 kts | 60° |
| 2026-05-05 16:08 | 50.91678 | 4.57522 | 2760 ft | 166 kts | 61° |
| 2026-05-05 16:09 | 50.92211 | 4.59172 | 3408 ft | 167 kts | 63° |
| 2026-05-05 16:09 | 50.92746 | 4.60834 | 3836 ft | 180 kts | 62° |
| 2026-05-05 16:09 | 50.93346 | 4.62685 | 4205 ft | 197 kts | 63° |
| 2026-05-05 16:09 | 50.93996 | 4.64749 | 4499 ft | 223 kts | 65° |
| 2026-05-05 16:10 | 50.94574 | 4.67178 | 4872 ft | 248 kts | 76° |
| 2026-05-05 16:10 | 50.94602 | 4.70005 | 5397 ft | 267 kts | 104° |
| 2026-05-05 16:10 | 50.93713 | 4.72593 | 6190 ft | 274 kts | 135° |
| 2026-05-05 16:10 | 50.92075 | 4.74112 | 7037 ft | 278 kts | 167° |
| 2026-05-05 16:11 | 50.90155 | 4.74022 | 7875 ft | 282 kts | 199° |
| 2026-05-05 16:11 | 50.86525 | 4.66758 | 10250 ft | 300 kts | 242° |
| 2026-05-05 16:12 | 50.85509 | 4.63747 | 10540 ft | 321 kts | 242° |
| 2026-05-05 16:12 | 50.83326 | 4.57308 | 11942 ft | 337 kts | 241° |
| 2026-05-05 16:13 | 50.79898 | 4.47381 | 14126 ft | 348 kts | 240° |
| 2026-05-05 16:13 | 50.78727 | 4.44017 | 14811 ft | 351 kts | 240° |
| 2026-05-05 16:13 | 50.77544 | 4.40617 | 15477 ft | 354 kts | 240° |
| 2026-05-05 16:14 | 50.75144 | 4.33738 | 16775 ft | 361 kts | 240° |
| 2026-05-05 16:14 | 50.72699 | 4.26740 | 18007 ft | 367 kts | 240° |
| 2026-05-05 16:15 | 50.70212 | 4.19634 | 19203 ft | 373 kts | 240° |
| 2026-05-05 16:15 | 50.67680 | 4.12398 | 20329 ft | 380 kts | 240° |
| 2026-05-05 16:16 | 50.65101 | 4.05056 | 21394 ft | 386 kts | 240° |
| 2026-05-05 16:16 | 50.62478 | 3.97621 | 22382 ft | 391 kts | 240° |
| 2026-05-05 16:17 | 50.59804 | 3.90080 | 23340 ft | 397 kts | 239° |
| 2026-05-05 16:17 | 50.58297 | 3.86500 | 23768 ft | 399 kts | 229° |
| 2026-05-05 16:18 | 50.54007 | 3.81009 | 24636 ft | 401 kts | 206° |
| 2026-05-05 16:18 | 50.51458 | 3.79211 | 25060 ft | 403 kts | 202° |
| 2026-05-05 16:18 | 50.46278 | 3.75692 | 25876 ft | 408 kts | 202° |
| 2026-05-05 16:19 | 50.43666 | 3.73917 | 26269 ft | 411 kts | 202° |
| 2026-05-05 16:19 | 50.41039 | 3.72131 | 26651 ft | 412 kts | 202° |
| 2026-05-05 16:19 | 50.35742 | 3.68541 | 27391 ft | 417 kts | 202° |
| 2026-05-05 16:20 | 50.30391 | 3.64925 | 28113 ft | 421 kts | 202° |
| 2026-05-05 16:20 | 50.24989 | 3.61273 | 28791 ft | 425 kts | 202° |
| 2026-05-05 16:21 | 50.19527 | 3.57585 | 29460 ft | 429 kts | 202° |
| 2026-05-05 16:22 | 50.11243 | 3.52024 | 30385 ft | 435 kts | 202° |
| 2026-05-05 16:22 | 50.05661 | 3.48300 | 30977 ft | 438 kts | 202° |
| 2026-05-05 16:23 | 50.00056 | 3.44563 | 31633 ft | 438 kts | 202° |
| 2026-05-05 16:23 | 49.97260 | 3.42697 | 32027 ft | 436 kts | 202° |
| 2026-05-05 16:23 | 49.91699 | 3.39000 | 32753 ft | 434 kts | 202° |
| 2026-05-05 16:24 | 49.88961 | 3.37189 | 33114 ft | 432 kts | 202° |
| 2026-05-05 16:24 | 49.86199 | 3.35363 | 33483 ft | 431 kts | 202° |
| 2026-05-05 16:24 | 49.80697 | 3.31729 | 34221 ft | 428 kts | 202° |
| 2026-05-05 16:25 | 49.77959 | 3.29920 | 34535 ft | 428 kts | 202° |
| 2026-05-05 16:25 | 49.72448 | 3.26284 | 35043 ft | 428 kts | 202° |
| 2026-05-05 16:25 | 49.69711 | 3.24478 | 35284 ft | 428 kts | 202° |
| 2026-05-05 16:26 | 49.64258 | 3.20889 | 35748 ft | 429 kts | 202° |
| 2026-05-05 16:26 | 49.58727 | 3.17259 | 36195 ft | 430 kts | 202° |
| 2026-05-05 16:27 | 49.55974 | 3.15460 | 36400 ft | 431 kts | 202° |
| 2026-05-05 16:27 | 49.53248 | 3.13683 | 36609 ft | 431 kts | 202° |
| 2026-05-05 16:27 | 49.50484 | 3.11882 | 36793 ft | 431 kts | 202° |
| 2026-05-05 16:27 | 49.47814 | 3.09845 | 36844 ft | 426 kts | 211° |
| 2026-05-05 16:28 | 49.42906 | 3.04879 | 36842 ft | 421 kts | 213° |
| 2026-05-05 16:28 | 49.38029 | 2.99918 | 36837 ft | 420 kts | 213° |
| 2026-05-05 16:29 | 49.33124 | 2.94942 | 36841 ft | 420 kts | 213° |
| 2026-05-05 16:29 | 49.28278 | 2.90039 | 36840 ft | 420 kts | 213° |
| 2026-05-05 16:30 | 49.23397 | 2.85111 | 36843 ft | 420 kts | 212° |
| 2026-05-05 16:30 | 49.18512 | 2.80204 | 36841 ft | 420 kts | 212° |
| 2026-05-05 16:31 | 49.13629 | 2.75311 | 36840 ft | 420 kts | 212° |
| 2026-05-05 16:31 | 49.08751 | 2.70417 | 36834 ft | 420 kts | 212° |
| 2026-05-05 16:32 | 49.03866 | 2.65530 | 36830 ft | 420 kts | 212° |
| 2026-05-05 16:32 | 48.98975 | 2.60670 | 36829 ft | 420 kts | 212° |
| 2026-05-05 16:33 | 48.94086 | 2.55816 | 36818 ft | 419 kts | 212° |
| 2026-05-05 16:33 | 48.89198 | 2.50966 | 36834 ft | 420 kts | 212° |
| 2026-05-05 16:34 | 48.84296 | 2.46132 | 36820 ft | 420 kts | 212° |
| 2026-05-05 16:34 | 48.79393 | 2.41290 | 36831 ft | 420 kts | 212° |
| 2026-05-05 16:35 | 48.74483 | 2.36453 | 36818 ft | 422 kts | 212° |
| 2026-05-05 16:35 | 48.69554 | 2.31610 | 36827 ft | 422 kts | 212° |
| 2026-05-05 16:36 | 48.64623 | 2.26777 | 36832 ft | 422 kts | 212° |
| 2026-05-05 16:36 | 48.59515 | 2.22467 | 36827 ft | 421 kts | 199° |
| 2026-05-05 16:37 | 48.53909 | 2.21006 | 36821 ft | 419 kts | 178° |
| 2026-05-05 16:37 | 48.48179 | 2.22502 | 36817 ft | 420 kts | 166° |
| 2026-05-05 16:38 | 48.42502 | 2.24663 | 36818 ft | 421 kts | 166° |
| 2026-05-05 16:38 | 48.36810 | 2.26805 | 36818 ft | 422 kts | 166° |
| 2026-05-05 16:39 | 48.31111 | 2.28952 | 36821 ft | 422 kts | 166° |
| 2026-05-05 16:39 | 48.25412 | 2.31118 | 36826 ft | 423 kts | 166° |
| 2026-05-05 16:40 | 48.19720 | 2.33387 | 36834 ft | 423 kts | 165° |
| 2026-05-05 16:40 | 48.14031 | 2.35686 | 36827 ft | 424 kts | 165° |
| 2026-05-05 16:41 | 48.08392 | 2.38235 | 36831 ft | 424 kts | 162° |
| 2026-05-05 16:41 | 48.02853 | 2.41091 | 36827 ft | 424 kts | 161° |
| 2026-05-05 16:42 | 47.97283 | 2.43965 | 36836 ft | 424 kts | 162° |
| 2026-05-05 16:42 | 47.91693 | 2.46752 | 36839 ft | 424 kts | 162° |
| 2026-05-05 16:43 | 47.86092 | 2.49495 | 36838 ft | 424 kts | 162° |
| 2026-05-05 16:43 | 47.80493 | 2.52234 | 36839 ft | 423 kts | 162° |
| 2026-05-05 16:44 | 47.74904 | 2.54989 | 36845 ft | 423 kts | 162° |
| 2026-05-05 16:44 | 47.69327 | 2.57738 | 36841 ft | 422 kts | 162° |
| 2026-05-05 16:45 | 47.63750 | 2.60476 | 36842 ft | 423 kts | 162° |
| 2026-05-05 16:45 | 47.58165 | 2.63200 | 36837 ft | 423 kts | 162° |
| 2026-05-05 16:46 | 47.53523 | 2.65461 | 36841 ft | 423 kts | 162° |